Terminal Aerodrome Forecast
Issued by NWS

Home | Current Version | Previous Version | Text Only | Print | Product List | Glossary Off
Versions: 1 2 3 4 5 6 7 8 9 10 11 12 13 14 15 16 17 18 19 20 21 22 23 24 25 26 27

000
FTUS45 KGGW 300500
TAFGDV
TAF
KGDV 300527Z 3006/3106 14006KT P6SM SKC
     FM301300 16009KT P6SM SCT120 BKN200
     FM302000 VRB15G25KT P6SM VCTS SCT060CB BKN110
     FM310100 33007KT P6SM BKN120
      AMD LTD TO CLD VIS AND WIND=

USA.gov is the U.S. government's official web portal to all federal, state and local government web resources and services.